Roanoke, Texas
Current Conditions -  °F | °C
As of 10:53 PM on Saturday 20 Dec 2014 (Local Time) from KAFW Reporting Station
Overcast Overcast  
Wind Chill: 44°   Ceiling: 2900
Heat Index: 46°   Visibility: 7mi
Dew Point: 43°   Wind: 5mph
Humidity: 89%   Direction: 140°SE
Pressure: 30.18"   Gusts: NA
Location:  33°N, 97.23°W
Report Text: KAFW 210453Z 14004KT 7SM OVC029 08/06 A3018 RMK AO2 SLP224 T00780061
Loading
Personal Weather Stations






























Interactive Weather Map New forecast layout! Learn more

10-Day Weather Forecast

Advertisements
Track Severe Weather on mobile